Time;durP1;ratioP1;P1;durP2;ratioP2;P2;SDS_P1;SDS_P2;PMS_P1;PMS_P2;Temp;Humidity;BMP_temperature;BMP_pressure;BME280_temperature;BME280_humidity;BME280_pressure;Samples;Min_cycle;Max_cycle;Signal;HPM_P1;HPM_P2
2022/09/03 00:02:33;;;;;;;2.27;2.13;;;19.20;79.00;;;;;;5052855;28;20853;-43
2022/09/03 00:05:11;;;;;;;2.33;2.13;;;19.20;78.80;;;;;;5052465;28;20485;-43
2022/09/03 00:08:08;;;;;;;4.63;1.80;;;19.20;79.30;;;;;;5052235;28;20799;-44
2022/09/03 00:10:52;;;;;;;2.37;1.97;;;19.10;78.90;;;;;;5055370;28;20923;-47
2022/09/03 00:13:31;;;;;;;2.40;1.90;;;19.10;79.10;;;;;;5042647;28;20480;-42
2022/09/03 00:15:58;;;;;;;1.93;1.77;;;19.10;79.60;;;;;;5052410;28;20431;-46
2022/09/03 00:18:28;;;;;;;2.30;2.10;;;19.10;79.50;;;;;;5051850;28;20435;-48
2022/09/03 00:21:10;;;;;;;1.77;1.67;;;19.00;79.70;;;;;;5064122;28;20439;-47
2022/09/03 00:23:40;;;;;;;2.13;1.90;;;19.00;80.00;;;;;;5052441;28;20420;-44
2022/09/03 00:26:12;;;;;;;2.10;1.70;;;19.00;79.70;;;;;;5052092;28;20428;-43
2022/09/03 00:28:55;;;;;;;2.40;1.90;;;18.90;79.70;;;;;;5050293;28;20432;-48
2022/09/03 00:31:46;;;;;;;1.97;1.83;;;18.90;80.30;;;;;;5052011;28;20811;-47
2022/09/03 00:34:22;;;;;;;3.53;2.40;;;18.90;80.20;;;;;;5052213;28;20435;-45
2022/09/03 00:36:48;;;;;;;1.80;1.60;;;18.90;80.10;;;;;;5051509;28;20762;-45
2022/09/03 00:39:20;;;;;;;5.37;2.03;;;18.90;80.00;;;;;;5052308;28;20890;-45
2022/09/03 00:41:58;;;;;;;2.33;2.10;;;18.90;80.10;;;;;;5051861;28;20419;-48
2022/09/03 00:44:47;;;;;;;2.13;1.77;;;19.00;80.40;;;;;;5052201;28;20420;-47
2022/09/03 00:47:23;;;;;;;1.70;1.60;;;19.00;80.40;;;;;;5050533;28;20452;-49
2022/09/03 00:50:08;;;;;;;1.77;1.67;;;18.90;80.50;;;;;;5051617;28;20930;-45
2022/09/03 00:52:44;;;;;;;3.60;2.10;;;18.90;81.10;;;;;;5050541;28;20954;-42
2022/09/03 00:55:22;;;;;;;2.20;1.97;;;18.80;81.10;;;;;;5051520;28;20447;-42
2022/09/03 00:57:51;;;;;;;2.57;1.90;;;18.70;81.10;;;;;;5049569;28;20419;-45
2022/09/03 01:00:19;;;;;;;2.10;1.90;;;18.70;81.10;;;;;;5051640;28;20422;-43
2022/09/03 01:03:00;;;;;;;2.17;1.90;;;18.70;81.10;;;;;;5051506;28;20482;-44
2022/09/03 01:06:00;;;;;;;2.50;1.80;;;18.70;81.50;;;;;;5051362;28;20459;-44
2022/09/03 01:09:01;;;;;;;2.17;1.70;;;18.60;81.70;;;;;;5050905;28;20428;-48
2022/09/03 01:11:58;;;;;;;1.73;1.63;;;18.70;82.00;;;;;;5051410;28;21021;-45
2022/09/03 01:14:39;;;;;;;1.90;1.60;;;18.70;81.80;;;;;;5051148;28;20412;-45
2022/09/03 01:17:24;;;;;;;2.93;1.80;;;18.70;81.80;;;;;;5050739;28;20510;-44
2022/09/03 01:19:56;;;;;;;2.13;1.90;;;18.70;81.90;;;;;;5060264;28;20427;-49
2022/09/03 01:22:50;;;;;;;3.00;1.90;;;18.60;82.10;;;;;;5053379;28;20436;-44
2022/09/03 01:25:54;;;;;;;5.23;1.87;;;18.60;82.20;;;;;;5051205;28;20420;-48
2022/09/03 01:28:54;;;;;;;2.33;2.20;;;18.60;82.40;;;;;;5050468;28;20440;-44
2022/09/03 01:31:28;;;;;;;1.80;1.70;;;18.60;82.40;;;;;;5041965;28;20456;-46
2022/09/03 01:34:15;;;;;;;2.33;2.13;;;18.50;82.60;;;;;;5050880;28;20530;-46
2022/09/03 01:37:05;;;;;;;1.67;1.57;;;18.60;82.60;;;;;;5048963;28;20416;-43
2022/09/03 01:40:01;;;;;;;1.80;1.70;;;18.50;82.70;;;;;;5050398;28;20478;-47
2022/09/03 01:43:09;;;;;;;1.60;1.50;;;18.50;83.00;;;;;;5049466;28;20920;-44
2022/09/03 01:45:52;;;;;;;1.60;1.50;;;18.50;82.90;;;;;;5049373;28;20428;-45
2022/09/03 01:48:45;;;;;;;3.10;1.50;;;18.50;82.80;;;;;;5050301;28;20781;-45
2022/09/03 01:51:44;;;;;;;2.37;1.63;;;18.40;83.10;;;;;;5049364;28;20837;-45
2022/09/03 01:54:29;;;;;;;1.80;1.70;;;18.40;83.30;;;;;;5052719;28;20432;-43
2022/09/03 01:57:08;;;;;;;2.17;1.80;;;18.40;83.30;;;;;;5047988;28;20511;-44
2022/09/03 01:59:50;;;;;;;1.93;1.83;;;18.40;83.20;;;;;;5050053;28;20453;-43
2022/09/03 02:02:27;;;;;;;1.60;1.50;;;18.40;83.30;;;;;;5046098;28;20428;-42
2022/09/03 02:05:01;;;;;;;1.63;1.53;;;18.40;83.70;;;;;;5050303;28;20435;-46
2022/09/03 02:07:33;;;;;;;2.10;1.90;;;18.40;83.70;;;;;;5048535;28;20428;-46
2022/09/03 02:10:01;;;;;;;2.50;1.60;;;18.40;83.90;;;;;;5050244;28;20471;-43
2022/09/03 02:12:32;;;;;;;1.60;1.50;;;18.40;83.80;;;;;;5050118;28;20520;-48
2022/09/03 02:15:02;;;;;;;1.60;1.50;;;18.30;84.10;;;;;;5050123;28;20911;-44
2022/09/03 02:17:28;;;;;;;1.97;1.47;;;18.20;84.60;;;;;;5049761;28;20500;-44
2022/09/03 02:19:54;;;;;;;2.23;1.67;;;18.30;84.70;;;;;;5055728;28;20579;-47
2022/09/03 02:22:20;;;;;;;1.73;1.63;;;18.30;84.50;;;;;;5050021;28;20485;-45
2022/09/03 02:24:45;;;;;;;2.33;2.00;;;18.20;84.20;;;;;;5046341;28;20208;-43
2022/09/03 02:27:11;;;;;;;3.20;2.00;;;18.30;84.20;;;;;;5048872;28;20189;-46
2022/09/03 02:29:37;;;;;;;2.47;1.70;;;18.30;84.10;;;;;;5048934;28;20530;-45
2022/09/03 02:32:03;;;;;;;2.50;1.70;;;18.20;83.90;;;;;;5050007;28;20217;-44
2022/09/03 02:34:29;;;;;;;1.97;1.87;;;18.30;84.10;;;;;;5049889;28;20299;-45
2022/09/03 02:36:55;;;;;;;1.93;1.70;;;18.30;84.20;;;;;;5048962;28;20477;-48
2022/09/03 02:39:20;;;;;;;1.70;1.60;;;18.30;84.20;;;;;;5049548;28;20186;-45
2022/09/03 02:41:53;;;;;;;1.80;1.70;;;18.30;84.20;;;;;;5043345;28;20187;-45
2022/09/03 02:44:26;;;;;;;3.37;1.90;;;18.40;84.30;;;;;;5042096;28;20219;-46
2022/09/03 02:46:59;;;;;;;2.73;1.57;;;18.30;84.20;;;;;;5048945;28;20456;-48
2022/09/03 02:49:26;;;;;;;1.93;1.80;;;18.40;84.30;;;;;;5049834;28;20412;-47
2022/09/03 02:51:59;;;;;;;1.97;1.80;;;18.40;84.10;;;;;;5048992;28;21310;-45
2022/09/03 02:54:26;;;;;;;2.03;1.80;;;18.40;83.70;;;;;;5049658;28;20420;-43
2022/09/03 02:56:52;;;;;;;2.20;1.80;;;18.30;83.90;;;;;;5045966;28;20481;-45
2022/09/03 02:59:18;;;;;;;1.97;1.87;;;18.30;84.30;;;;;;5049804;28;20947;-47
2022/09/03 03:01:44;;;;;;;2.60;1.80;;;18.30;84.30;;;;;;5031629;28;20190;-46
2022/09/03 03:04:09;;;;;;;3.10;2.07;;;18.30;84.60;;;;;;5049371;28;20251;-46
2022/09/03 03:06:35;;;;;;;2.40;2.20;;;18.30;84.90;;;;;;5048450;28;20549;-45
2022/09/03 03:09:02;;;;;;;2.90;1.97;;;18.30;84.50;;;;;;5048774;28;20604;-43
2022/09/03 03:11:29;;;;;;;2.10;1.90;;;18.30;84.60;;;;;;5049436;28;20263;-48
2022/09/03 03:13:55;;;;;;;3.50;1.90;;;18.30;85.20;;;;;;5048572;28;20425;-44
2022/09/03 03:16:21;;;;;;;2.33;1.77;;;18.20;84.80;;;;;;5049148;28;20412;-42
2022/09/03 03:18:46;;;;;;;2.30;1.67;;;18.30;85.10;;;;;;5048704;28;20225;-46
2022/09/03 03:21:15;;;;;;;2.10;1.90;;;18.30;85.20;;;;;;5051528;28;20427;-43
2022/09/03 03:23:41;;;;;;;2.13;1.87;;;18.30;85.70;;;;;;5048925;28;20194;-44
2022/09/03 03:26:20;;;;;;;2.23;1.80;;;18.30;84.90;;;;;;5049143;28;20454;-48
2022/09/03 03:28:47;;;;;;;1.70;1.60;;;18.30;85.20;;;;;;5048386;28;20423;-44
2022/09/03 03:31:21;;;;;;;2.80;2.00;;;18.20;85.40;;;;;;5049029;28;20420;-44
2022/09/03 03:33:54;;;;;;;2.37;1.80;;;18.20;85.60;;;;;;5049040;28;20431;-42
2022/09/03 03:36:21;;;;;;;2.23;2.03;;;18.20;85.70;;;;;;5049213;28;20877;-44
2022/09/03 03:38:47;;;;;;;3.10;1.87;;;18.20;85.80;;;;;;5048403;28;20939;-46
2022/09/03 03:41:22;;;;;;;2.90;1.83;;;18.20;86.00;;;;;;5049219;28;20428;-43
2022/09/03 03:43:56;;;;;;;1.90;1.80;;;18.10;86.30;;;;;;5049102;28;20190;-44
2022/09/03 03:46:23;;;;;;;2.20;2.00;;;18.10;86.30;;;;;;5048994;28;20424;-43
2022/09/03 03:48:50;;;;;;;3.33;2.40;;;18.10;86.40;;;;;;5048539;28;20444;-42
2022/09/03 03:51:16;;;;;;;2.67;1.90;;;18.10;86.40;;;;;;5048898;28;20451;-42
2022/09/03 03:53:42;;;;;;;4.73;2.10;;;18.10;86.40;;;;;;5047658;28;20428;-46
2022/09/03 03:56:11;;;;;;;1.90;1.70;;;18.20;86.60;;;;;;5047266;28;20420;-45
2022/09/03 03:58:41;;;;;;;4.93;1.93;;;18.20;86.70;;;;;;5030251;28;20437;-43
2022/09/03 04:01:18;;;;;;;2.60;1.53;;;18.10;86.70;;;;;;5048903;28;20416;-42
2022/09/03 04:03:44;;;;;;;1.97;1.80;;;18.10;86.80;;;;;;5049087;28;20426;-42
2022/09/03 04:06:16;;;;;;;2.40;1.90;;;18.10;87.10;;;;;;5048590;28;20472;-47
2022/09/03 04:08:44;;;;;;;2.40;1.63;;;18.10;88.20;;;;;;5048402;28;20428;-47
2022/09/03 04:11:12;;;;;;;1.70;1.60;;;18.00;87.40;;;;;;5048337;28;20782;-45
2022/09/03 04:13:40;;;;;;;1.93;1.60;;;18.00;87.70;;;;;;5048959;28;20428;-46
2022/09/03 04:16:08;;;;;;;2.30;2.10;;;18.00;87.80;;;;;;5048528;28;20426;-44
2022/09/03 04:18:35;;;;;;;1.87;1.73;;;18.00;87.90;;;;;;5048223;28;20436;-46
2022/09/03 04:21:03;;;;;;;2.03;1.83;;;18.00;87.60;;;;;;5052221;28;20764;-45
2022/09/03 04:23:36;;;;;;;1.67;1.57;;;18.00;87.90;;;;;;5051029;28;20424;-43
2022/09/03 04:26:03;;;;;;;2.27;1.50;;;17.90;88.90;;;;;;5050506;28;20416;-44
2022/09/03 04:28:29;;;;;;;2.20;2.00;;;17.80;89.70;;;;;;5051638;28;20412;-44
2022/09/03 04:31:06;;;;;;;1.93;1.63;;;17.80;89.60;;;;;;5052268;28;20466;-45
2022/09/03 04:33:32;;;;;;;2.33;1.80;;;17.70;90.40;;;;;;5052301;28;20189;-45
2022/09/03 04:36:09;;;;;;;2.13;1.93;;;17.60;90.90;;;;;;5051870;28;20428;-43
2022/09/03 04:38:37;;;;;;;1.80;1.70;;;17.60;90.60;;;;;;5051569;28;20421;-43
2022/09/03 04:41:04;;;;;;;3.57;2.17;;;17.60;90.80;;;;;;5052015;28;20408;-45
2022/09/03 04:43:30;;;;;;;1.77;1.67;;;17.60;91.10;;;;;;5051827;28;21116;-44
2022/09/03 04:46:00;;;;;;;1.90;1.80;;;17.60;90.90;;;;;;5049697;28;20416;-45
2022/09/03 04:48:28;;;;;;;2.70;2.20;;;17.50;91.10;;;;;;5050840;28;20194;-46
2022/09/03 04:50:54;;;;;;;3.70;1.83;;;17.50;90.90;;;;;;5051896;28;20970;-42
2022/09/03 04:53:21;;;;;;;2.67;1.90;;;17.50;91.40;;;;;;5051711;28;20499;-45
2022/09/03 04:55:47;;;;;;;2.37;1.87;;;17.40;91.40;;;;;;5051726;28;20420;-45
2022/09/03 04:58:13;;;;;;;2.67;1.97;;;17.40;91.40;;;;;;5049662;28;21053;-44
2022/09/03 05:00:39;;;;;;;2.33;1.83;;;17.40;91.90;;;;;;5049131;28;20201;-45
2022/09/03 05:03:04;;;;;;;2.30;2.10;;;17.40;91.80;;;;;;5049828;28;20197;-47
2022/09/03 05:05:32;;;;;;;2.70;2.40;;;17.40;91.80;;;;;;5050147;28;20839;-42
2022/09/03 05:08:02;;;;;;;3.33;2.23;;;17.40;92.60;;;;;;5050729;28;20193;-47
2022/09/03 05:10:27;;;;;;;2.40;2.00;;;17.30;92.70;;;;;;5051508;28;20416;-46
2022/09/03 05:12:58;;;;;;;3.30;1.90;;;17.30;92.80;;;;;;5051152;28;20529;-45
2022/09/03 05:15:24;;;;;;;2.70;2.50;;;17.20;93.10;;;;;;5051479;28;20924;-44
2022/09/03 05:17:52;;;;;;;2.30;2.10;;;17.20;93.00;;;;;;5050695;28;20425;-47
2022/09/03 05:20:18;;;;;;;2.07;1.87;;;17.10;93.20;;;;;;5053284;28;20548;-46
2022/09/03 05:22:44;;;;;;;5.63;2.50;;;17.10;93.60;;;;;;5051107;28;20432;-46
2022/09/03 05:25:09;;;;;;;3.10;2.33;;;17.00;93.90;;;;;;5051319;28;20259;-44
2022/09/03 05:27:35;;;;;;;5.37;2.50;;;17.10;94.00;;;;;;5050534;28;20266;-43
2022/09/03 05:30:01;;;;;;;2.43;2.20;;;17.10;94.00;;;;;;5051184;28;20186;-44
2022/09/03 05:32:29;;;;;;;2.27;2.00;;;17.10;94.10;;;;;;5050616;28;20217;-42
2022/09/03 05:34:55;;;;;;;1.90;1.80;;;17.10;94.20;;;;;;5050735;28;20186;-46
2022/09/03 05:37:22;;;;;;;2.87;2.40;;;17.10;94.10;;;;;;5050209;28;20534;-43
2022/09/03 05:39:48;;;;;;;2.47;1.63;;;17.10;94.30;;;;;;5050942;28;20198;-47
2022/09/03 05:42:14;;;;;;;3.07;2.33;;;17.10;94.60;;;;;;5049805;28;20791;-42
2022/09/03 05:44:39;;;;;;;4.30;2.50;;;17.10;94.80;;;;;;5050706;28;20201;-42
2022/09/03 05:47:05;;;;;;;2.80;2.33;;;17.20;94.80;;;;;;5049886;28;20420;-46
2022/09/03 05:49:31;;;;;;;1.70;1.60;;;17.20;95.30;;;;;;5050528;28;20194;-47
2022/09/03 05:51:57;;;;;;;1.73;1.63;;;17.20;95.50;;;;;;5049346;28;20538;-42
2022/09/03 05:54:22;;;;;;;2.17;1.97;;;17.20;95.30;;;;;;5050983;28;20964;-43
2022/09/03 05:56:48;;;;;;;2.43;2.10;;;17.30;95.10;;;;;;5048447;28;20182;-45
2022/09/03 05:59:14;;;;;;;3.10;1.80;;;17.50;94.90;;;;;;5050630;28;20206;-42
2022/09/03 06:01:42;;;;;;;2.50;2.30;;;17.50;95.20;;;;;;5066684;28;20271;-42
2022/09/03 06:04:12;;;;;;;2.93;2.00;;;17.60;96.20;;;;;;5065116;28;20453;-44
2022/09/03 06:06:40;;;;;;;5.20;2.40;;;17.70;95.90;;;;;;5049637;28;20969;-45
2022/09/03 06:09:12;;;;;;;2.00;1.90;;;17.80;95.80;;;;;;5052160;28;20428;-45
2022/09/03 06:11:39;;;;;;;2.50;2.20;;;17.90;95.30;;;;;;5050271;28;21020;-45
2022/09/03 06:14:08;;;;;;;5.90;2.37;;;18.00;95.20;;;;;;5048646;28;20539;-44
2022/09/03 06:16:38;;;;;;;2.60;2.00;;;18.20;95.10;;;;;;5040149;28;20529;-45
2022/09/03 06:19:09;;;;;;;3.67;2.10;;;18.30;95.00;;;;;;5050062;28;20412;-42
2022/09/03 06:21:43;;;;;;;5.87;2.10;;;18.50;94.60;;;;;;5048372;28;20519;-43
2022/09/03 06:24:11;;;;;;;3.03;1.93;;;18.60;94.10;;;;;;5053907;28;20455;-46
2022/09/03 06:26:37;;;;;;;3.90;1.97;;;18.70;94.60;;;;;;5048093;28;21025;-45
2022/09/03 06:29:03;;;;;;;2.10;1.87;;;18.80;94.70;;;;;;5048468;28;20416;-45
2022/09/03 06:31:29;;;;;;;2.27;2.03;;;18.90;94.80;;;;;;5049903;28;20966;-45
2022/09/03 06:33:55;;;;;;;3.40;3.10;;;18.90;94.80;;;;;;5049936;28;20525;-44
2022/09/03 06:36:22;;;;;;;2.90;2.60;;;19.00;94.50;;;;;;5049939;28;20432;-48
2022/09/03 06:38:52;;;;;;;4.07;2.87;;;19.10;94.00;;;;;;5048942;28;20726;-45
2022/09/03 06:41:23;;;;;;;2.60;2.40;;;19.20;94.20;;;;;;5049997;28;20422;-43
2022/09/03 06:43:54;;;;;;;3.43;2.50;;;19.30;94.10;;;;;;5047074;28;21154;-44
2022/09/03 06:46:22;;;;;;;2.63;2.43;;;19.40;94.30;;;;;;5048490;28;20429;-46
2022/09/03 06:48:52;;;;;;;2.17;1.97;;;19.50;93.90;;;;;;5048838;28;20431;-46
2022/09/03 06:51:24;;;;;;;2.50;2.30;;;19.60;93.70;;;;;;5049547;28;20448;-45
2022/09/03 06:53:53;;;;;;;3.37;2.80;;;19.70;93.60;;;;;;5046023;28;20864;-45
2022/09/03 06:56:25;;;;;;;2.70;2.20;;;19.70;93.40;;;;;;5048015;28;21103;-48
2022/09/03 06:59:03;;;;;;;2.73;2.53;;;19.80;92.80;;;;;;5045387;28;20448;-47
2022/09/03 07:01:30;;;;;;;4.47;2.60;;;20.00;92.30;;;;;;5049518;28;20503;-44
2022/09/03 07:03:59;;;;;;;2.30;2.10;;;20.10;92.20;;;;;;5040129;28;20517;-48
2022/09/03 07:06:27;;;;;;;2.33;1.97;;;20.10;92.00;;;;;;5049636;28;20519;-45
2022/09/03 07:08:54;;;;;;;3.10;2.10;;;20.20;92.20;;;;;;5051742;28;21002;-49
2022/09/03 07:11:24;;;;;;;2.40;2.20;;;20.20;91.90;;;;;;5049026;28;20420;-43
2022/09/03 07:13:51;;;;;;;2.70;2.00;;;20.10;92.00;;;;;;5048771;28;20481;-44
2022/09/03 07:16:19;;;;;;;4.13;2.00;;;20.00;92.20;;;;;;5044202;28;20417;-47
2022/09/03 07:18:46;;;;;;;2.07;1.90;;;20.00;92.20;;;;;;5042358;28;20499;-46
2022/09/03 07:21:18;;;;;;;2.50;1.87;;;20.10;92.40;;;;;;5042105;28;20447;-46
2022/09/03 07:23:45;;;;;;;2.20;1.90;;;20.10;92.20;;;;;;5049141;28;20452;-43
2022/09/03 07:26:14;;;;;;;2.70;1.90;;;20.10;93.00;;;;;;5049187;28;20483;-45
2022/09/03 07:28:41;;;;;;;3.83;1.97;;;20.20;93.10;;;;;;5048650;28;20486;-45
2022/09/03 07:31:13;;;;;;;2.20;2.00;;;20.30;93.20;;;;;;5048655;28;20442;-47
2022/09/03 07:33:40;;;;;;;2.63;2.13;;;20.30;94.00;;;;;;5047358;28;20420;-44
2022/09/03 07:36:08;;;;;;;3.63;1.90;;;20.40;94.00;;;;;;5049742;28;20404;-46
2022/09/03 07:38:35;;;;;;;2.00;1.90;;;20.40;94.10;;;;;;5045470;28;20417;-47
2022/09/03 07:41:04;;;;;;;2.57;2.03;;;20.40;94.20;;;;;;5048974;28;20462;-45
2022/09/03 07:43:38;;;;;;;3.10;2.10;;;20.40;94.30;;;;;;5051271;28;20416;-43
2022/09/03 07:46:10;;;;;;;1.87;1.70;;;20.40;94.40;;;;;;5047635;28;20419;-46
2022/09/03 07:48:36;;;;;;;2.20;2.00;;;20.40;94.60;;;;;;5046674;28;20440;-48
2022/09/03 07:51:02;;;;;;;3.23;2.03;;;20.40;94.60;;;;;;5058020;28;21109;-47
2022/09/03 07:53:28;;;;;;;2.43;2.20;;;20.40;94.50;;;;;;5059082;28;20555;-46
2022/09/03 07:56:01;;;;;;;2.00;1.90;;;20.40;95.10;;;;;;5048171;28;20260;-46
2022/09/03 07:58:31;;;;;;;2.57;1.90;;;20.40;94.90;;;;;;5052319;28;20444;-49
2022/09/03 08:00:58;;;;;;;1.97;1.80;;;20.40;94.30;;;;;;5052678;28;20428;-45
2022/09/03 08:03:24;;;;;;;4.67;2.30;;;20.50;94.60;;;;;;5052742;28;20424;-44
2022/09/03 08:05:49;;;;;;;2.47;2.27;;;20.50;94.70;;;;;;5062043;28;21232;-47
2022/09/03 08:08:16;;;;;;;2.47;1.80;;;20.50;95.30;;;;;;5057321;28;20192;-46
2022/09/03 08:10:42;;;;;;;6.40;2.03;;;20.60;95.00;;;;;;5052260;28;20271;-47
2022/09/03 08:13:09;;;;;;;4.27;1.90;;;20.60;95.00;;;;;;5052648;28;20464;-48
2022/09/03 08:15:36;;;;;;;2.20;2.00;;;20.70;94.00;;;;;;5052898;28;20428;-47
2022/09/03 08:18:02;;;;;;;2.07;1.87;;;20.70;94.90;;;;;;5051843;28;20466;-44
2022/09/03 08:20:28;;;;;;;1.63;1.50;;;20.80;94.40;;;;;;5054522;28;20481;-43
2022/09/03 08:23:03;;;;;;;3.20;1.67;;;20.90;92.70;;;;;;5052087;28;20424;-48
2022/09/03 08:25:30;;;;;;;2.57;2.10;;;21.00;92.10;;;;;;5052023;28;20193;-46
2022/09/03 08:27:59;;;;;;;2.30;2.10;;;21.10;92.10;;;;;;5051356;28;20491;-47
2022/09/03 08:30:26;;;;;;;1.70;1.60;;;21.10;91.50;;;;;;5052444;28;20443;-44
2022/09/03 08:32:52;;;;;;;1.83;1.67;;;21.20;91.30;;;;;;5051909;28;20550;-47
2022/09/03 08:35:18;;;;;;;3.80;2.10;;;21.20;90.90;;;;;;5052425;28;20447;-46
2022/09/03 08:37:43;;;;;;;2.60;2.30;;;21.30;90.90;;;;;;5051188;28;20420;-44
2022/09/03 08:40:09;;;;;;;3.23;2.30;;;21.40;90.90;;;;;;5050961;28;20193;-44
2022/09/03 08:42:49;;;;;;;2.43;1.73;;;21.50;90.40;;;;;;5051152;28;20185;-43
2022/09/03 08:45:20;;;;;;;1.90;1.70;;;21.60;90.10;;;;;;5051171;28;20430;-44
2022/09/03 08:48:08;;;;;;;1.80;1.70;;;21.60;90.00;;;;;;5050777;28;20503;-44
2022/09/03 08:50:39;;;;;;;2.10;1.67;;;21.70;89.90;;;;;;5049652;28;20841;-46
2022/09/03 08:53:21;;;;;;;2.37;1.90;;;21.80;90.00;;;;;;5050262;28;20558;-48
2022/09/03 08:55:51;;;;;;;3.77;2.03;;;21.80;89.20;;;;;;5035738;28;20427;-46
2022/09/03 08:58:19;;;;;;;2.10;1.87;;;21.90;89.10;;;;;;5047597;28;20417;-44
2022/09/03 09:01:05;;;;;;;4.03;1.90;;;21.90;88.60;;;;;;5048708;28;20427;-43
2022/09/03 09:03:42;;;;;;;3.47;2.00;;;22.00;89.50;;;;;;5049449;28;21132;-45
2022/09/03 09:06:21;;;;;;;2.23;2.00;;;22.10;89.90;;;;;;5049739;28;20444;-46
2022/09/03 09:09:14;;;;;;;2.00;1.80;;;22.10;90.40;;;;;;5049388;28;20424;-45
2022/09/03 09:11:54;;;;;;;4.00;2.20;;;22.20;89.80;;;;;;5049412;28;20451;-44
2022/09/03 09:14:35;;;;;;;1.83;1.73;;;22.30;88.50;;;;;;5049680;28;20412;-45
2022/09/03 09:17:01;;;;;;;1.87;1.77;;;22.40;88.60;;;;;;5049695;28;20884;-47
2022/09/03 09:19:59;;;;;;;2.70;1.97;;;22.40;89.20;;;;;;5052325;28;20476;-44
2022/09/03 09:22:54;;;;;;;2.23;2.03;;;22.50;88.90;;;;;;5049976;28;20229;-43
2022/09/03 09:25:21;;;;;;;1.90;1.77;;;22.60;89.00;;;;;;5050455;28;20494;-46
2022/09/03 09:28:02;;;;;;;3.20;2.00;;;22.60;87.70;;;;;;5048856;28;20511;-46
2022/09/03 09:30:29;;;;;;;2.33;2.10;;;22.60;87.60;;;;;;5049933;28;20478;-48
2022/09/03 09:32:55;;;;;;;3.03;1.97;;;22.70;87.20;;;;;;5049601;28;20471;-46
2022/09/03 09:35:21;;;;;;;3.80;1.83;;;22.70;86.90;;;;;;5049617;28;20425;-45
2022/09/03 09:37:52;;;;;;;2.73;2.07;;;22.90;87.30;;;;;;5048929;28;20676;-43
2022/09/03 09:40:33;;;;;;;2.70;2.10;;;23.00;86.60;;;;;;5049101;28;20412;-43
2022/09/03 09:43:06;;;;;;;4.90;1.87;;;23.10;87.20;;;;;;5049419;28;20424;-48
2022/09/03 09:45:33;;;;;;;2.27;2.10;;;23.30;86.60;;;;;;5049578;28;20416;-45
2022/09/03 09:47:59;;;;;;;2.40;2.13;;;23.40;85.70;;;;;;5048699;28;20420;-45
2022/09/03 09:50:25;;;;;;;2.10;2.00;;;23.40;84.60;;;;;;5049594;28;21000;-43
2022/09/03 09:53:13;;;;;;;2.40;1.93;;;23.50;85.40;;;;;;5048950;28;20770;-44
2022/09/03 09:56:01;;;;;;;2.40;2.20;;;23.50;85.80;;;;;;5049389;28;20205;-45
2022/09/03 09:58:32;;;;;;;2.83;2.63;;;23.70;83.90;;;;;;5048475;28;20709;-44
2022/09/03 10:01:13;;;;;;;3.70;2.23;;;23.80;85.00;;;;;;5064033;28;20423;-48
2022/09/03 10:03:54;;;;;;;3.20;1.87;;;24.00;83.40;;;;;;5049190;28;20435;-44
2022/09/03 10:09:17;;;;;;;2.10;1.90;;;24.10;82.60;;;;;;5048918;28;20545;-46
2022/09/03 10:11:50;;;;;;;2.00;1.90;;;24.20;82.00;;;;;;5047325;28;20460;-47
2022/09/03 10:14:38;;;;;;;1.60;1.50;;;24.30;81.70;;;;;;5049257;28;20830;-49
2022/09/03 10:17:31;;;;;;;2.20;2.03;;;24.40;81.50;;;;;;5049908;28;20534;-45
2022/09/03 10:20:26;;;;;;;2.40;2.20;;;24.50;81.10;;;;;;5050725;28;20428;-44
2022/09/03 10:23:13;;;;;;;2.50;2.30;;;24.60;80.30;;;;;;5048707;28;20973;-48
2022/09/03 10:26:03;;;;;;;2.00;1.90;;;24.70;81.70;;;;;;5048553;28;20783;-45
2022/09/03 10:28:29;;;;;;;3.00;2.33;;;24.80;81.20;;;;;;5048045;28;20424;-48
2022/09/03 10:30:58;;;;;;;4.40;2.27;;;24.70;79.30;;;;;;5048527;28;20428;-47
2022/09/03 10:33:34;;;;;;;2.70;2.37;;;24.50;81.50;;;;;;5047373;28;20895;-44
2022/09/03 10:36:11;;;;;;;2.57;2.10;;;24.40;81.90;;;;;;5048297;28;20441;-48
2022/09/03 10:38:39;;;;;;;2.93;2.00;;;24.50;82.30;;;;;;5047490;28;20582;-44
2022/09/03 10:41:27;;;;;;;2.27;1.80;;;24.60;82.80;;;;;;5048137;28;20424;-50
2022/09/03 10:44:34;;;;;;;2.40;2.20;;;24.80;80.80;;;;;;5063701;28;20454;-46
2022/09/03 10:47:09;;;;;;;2.07;1.97;;;24.90;78.80;;;;;;5047332;28;20420;-49
2022/09/03 10:50:02;;;;;;;3.80;2.40;;;25.00;78.80;;;;;;5047996;28;20419;-47
2022/09/03 10:53:04;;;;;;;5.70;2.30;;;25.20;79.90;;;;;;5049725;28;20494;-46
2022/09/03 10:55:57;;;;;;;2.27;2.10;;;25.10;78.60;;;;;;5048343;28;20448;-49
2022/09/03 10:58:44;;;;;;;2.60;2.40;;;25.00;78.90;;;;;;5047237;28;20448;-47
2022/09/03 11:01:23;;;;;;;2.30;2.10;;;25.00;79.40;;;;;;5048173;28;20470;-47
2022/09/03 11:04:00;;;;;;;2.40;2.20;;;25.10;78.50;;;;;;5048247;28;20493;-48
2022/09/03 11:06:33;;;;;;;2.90;2.03;;;25.20;77.90;;;;;;5048186;28;20800;-48
2022/09/03 11:09:10;;;;;;;3.57;2.40;;;25.20;78.70;;;;;;5048002;28;20412;-46
2022/09/03 11:11:49;;;;;;;2.47;2.27;;;25.20;77.50;;;;;;5047966;28;20408;-47
2022/09/03 11:14:26;;;;;;;2.70;2.50;;;25.10;77.50;;;;;;5048213;28;20420;-44
2022/09/03 11:16:58;;;;;;;2.13;2.03;;;25.10;77.10;;;;;;5047357;28;20424;-44
2022/09/03 11:19:34;;;;;;;2.90;2.13;;;25.10;76.60;;;;;;5051927;28;20424;-50
2022/09/03 11:22:00;;;;;;;2.50;2.30;;;25.20;77.80;;;;;;5047858;28;20854;-44
2022/09/03 11:24:31;;;;;;;2.73;2.50;;;25.30;77.30;;;;;;5047356;28;20429;-47
2022/09/03 11:27:19;;;;;;;2.53;2.23;;;25.40;76.70;;;;;;5047482;28;20871;-50
2022/09/03 11:30:05;;;;;;;3.60;2.03;;;25.50;75.70;;;;;;5048392;28;20477;-49
2022/09/03 11:32:53;;;;;;;2.97;2.17;;;25.50;74.70;;;;;;5051871;28;20456;-51
2022/09/03 11:35:40;;;;;;;2.70;2.10;;;25.50;74.30;;;;;;5052108;28;20432;-46
2022/09/03 11:38:19;;;;;;;2.70;2.50;;;25.60;77.70;;;;;;5051035;28;20420;-45
2022/09/03 11:40:59;;;;;;;3.90;2.30;;;25.50;76.30;;;;;;5052213;28;20562;-44
2022/09/03 11:43:32;;;;;;;2.63;2.07;;;25.60;75.10;;;;;;5051847;28;20477;-46
2022/09/03 11:46:04;;;;;;;2.63;2.40;;;25.70;74.80;;;;;;5051782;28;20432;-46
2022/09/03 11:48:51;;;;;;;2.53;2.33;;;25.80;76.70;;;;;;5050815;28;20512;-49
2022/09/03 11:51:40;;;;;;;2.30;2.20;;;25.90;77.30;;;;;;5051595;28;20428;-46
2022/09/03 11:54:24;;;;;;;3.40;2.13;;;26.00;76.80;;;;;;5051412;28;20428;-47
2022/09/03 11:57:02;;;;;;;3.30;1.97;;;26.10;75.50;;;;;;5050006;28;20452;-44
2022/09/03 11:59:28;;;;;;;2.20;2.00;;;26.00;74.10;;;;;;5051836;28;20424;-47
2022/09/03 12:02:25;;;;;;;4.17;2.57;;;26.00;76.80;;;;;;5051056;28;20412;-46
2022/09/03 12:05:04;;;;;;;2.33;2.13;;;26.00;74.60;;;;;;5051088;28;20501;-47
2022/09/03 12:07:48;;;;;;;4.00;2.23;;;26.00;74.80;;;;;;5050756;28;20415;-47
2022/09/03 12:10:32;;;;;;;3.80;2.60;;;26.00;73.70;;;;;;5050757;28;20929;-45
2022/09/03 12:13:23;;;;;;;4.57;2.43;;;25.90;72.50;;;;;;5050627;28;20459;-50
2022/09/03 12:16:07;;;;;;;2.30;2.17;;;25.70;73.80;;;;;;5050761;28;20424;-48
2022/09/03 12:18:35;;;;;;;2.97;2.67;;;25.60;76.30;;;;;;5050581;28;20427;-47
2022/09/03 12:21:04;;;;;;;2.90;2.70;;;25.60;76.80;;;;;;5053201;28;20422;-45
2022/09/03 12:23:48;;;;;;;2.50;2.30;;;25.70;76.10;;;;;;5050802;28;20511;-44
2022/09/03 12:26:23;;;;;;;2.73;2.37;;;25.60;77.00;;;;;;5050418;28;20506;-49
2022/09/03 12:28:55;;;;;;;2.50;2.30;;;25.60;77.60;;;;;;5048604;28;20934;-45
2022/09/03 12:31:24;;;;;;;2.37;2.17;;;25.60;77.80;;;;;;5050533;28;20447;-43
2022/09/03 12:34:01;;;;;;;2.90;2.70;;;25.70;79.10;;;;;;5050552;28;20420;-44
2022/09/03 12:36:47;;;;;;;2.50;2.30;;;25.70;80.10;;;;;;5050684;28;20416;-47
2022/09/03 12:39:24;;;;;;;2.70;2.50;;;25.80;78.90;;;;;;5050172;28;20499;-49
2022/09/03 12:41:55;;;;;;;3.30;2.50;;;25.80;78.50;;;;;;5048227;28;20825;-45
2022/09/03 12:44:31;;;;;;;3.10;2.80;;;25.80;78.80;;;;;;5050585;28;20911;-50
2022/09/03 12:47:16;;;;;;;2.93;2.40;;;25.70;79.30;;;;;;5049458;28;20559;-47
2022/09/03 12:49:44;;;;;;;2.90;2.43;;;25.70;79.70;;;;;;5047101;28;20427;-44
2022/09/03 12:52:28;;;;;;;2.80;2.60;;;25.50;79.80;;;;;;5049857;28;20994;-48
2022/09/03 12:55:05;;;;;;;3.97;2.40;;;25.30;80.40;;;;;;5050159;28;20532;-48
2022/09/03 12:57:38;;;;;;;2.43;2.30;;;25.10;80.80;;;;;;5047419;28;20412;-51
2022/09/03 13:00:08;;;;;;;2.80;2.57;;;25.00;81.90;;;;;;5048000;28;20416;-43
2022/09/03 13:02:58;;;;;;;3.47;2.90;;;24.80;82.90;;;;;;5058881;28;20730;-49
2022/09/03 13:05:53;;;;;;;2.43;2.33;;;24.70;82.60;;;;;;5067419;28;20915;-44
2022/09/03 13:08:28;;;;;;;3.20;2.90;;;24.70;83.30;;;;;;5055167;28;20859;-46
2022/09/03 13:10:58;;;;;;;3.10;2.87;;;24.70;83.10;;;;;;5049779;28;20803;-44
2022/09/03 13:13:33;;;;;;;2.70;2.50;;;24.60;84.30;;;;;;5051458;28;20464;-46
2022/09/03 13:16:19;;;;;;;2.70;2.50;;;24.50;85.00;;;;;;5049794;28;20847;-45
2022/09/03 13:19:16;;;;;;;2.63;2.33;;;24.40;85.00;;;;;;5059125;28;20423;-46
2022/09/03 13:22:00;;;;;;;2.87;2.60;;;24.30;85.90;;;;;;5037494;28;20772;-44
2022/09/03 13:24:44;;;;;;;2.67;2.47;;;24.30;86.50;;;;;;5048315;28;20919;-47
2022/09/03 13:27:33;;;;;;;3.13;2.93;;;24.30;86.20;;;;;;5048632;28;20871;-46